sensor_id;sensor_type;location;lat;lon;timestamp;pressure;altitude;pressure_sealevel;temperature;humidity
52591;BME280;38483;42.620;25.394;2023-07-08T00:00:30;96938.31;;;23.80;60.58
52591;BME280;38483;42.620;25.394;2023-07-08T00:03:51;96922.06;;;23.67;60.56
52591;BME280;38483;42.620;25.394;2023-07-08T00:07:12;96930.78;;;23.85;60.56
52591;BME280;38483;42.620;25.394;2023-07-08T00:10:35;96931.63;;;23.86;60.30
52591;BME280;38483;42.620;25.394;2023-07-08T00:13:57;96910.03;;;23.98;59.54
52591;BME280;38483;42.620;25.394;2023-07-08T00:17:19;96919.34;;;23.85;59.38
52591;BME280;38483;42.620;25.394;2023-07-08T00:20:43;96898.97;;;23.77;60.24
52591;BME280;38483;42.620;25.394;2023-07-08T00:24:04;96916.19;;;23.81;60.01
52591;BME280;38483;42.620;25.394;2023-07-08T00:27:25;96906.00;;;23.86;59.60
52591;BME280;38483;42.620;25.394;2023-07-08T00:30:48;96895.03;;;23.81;58.77
52591;BME280;38483;42.620;25.394;2023-07-08T00:34:09;96935.28;;;23.93;58.15
52591;BME280;38483;42.620;25.394;2023-07-08T00:37:30;96915.63;;;23.95;58.88
52591;BME280;38483;42.620;25.394;2023-07-08T00:41:12;96929.88;;;23.94;59.08
52591;BME280;38483;42.620;25.394;2023-07-08T00:44:22;96905.91;;;23.78;59.53
52591;BME280;38483;42.620;25.394;2023-07-08T00:47:44;96935.16;;;23.94;59.66
52591;BME280;38483;42.620;25.394;2023-07-08T00:51:07;96937.25;;;23.91;59.60
52591;BME280;38483;42.620;25.394;2023-07-08T00:54:30;96946.25;;;23.98;59.46
52591;BME280;38483;42.620;25.394;2023-07-08T00:57:56;96951.03;;;23.94;59.71
52591;BME280;38483;42.620;25.394;2023-07-08T01:01:19;96906.97;;;23.85;59.67
52591;BME280;38483;42.620;25.394;2023-07-08T01:05:13;96934.41;;;23.84;60.36
52591;BME280;38483;42.620;25.394;2023-07-08T01:08:11;96938.50;;;23.79;60.44
52591;BME280;38483;42.620;25.394;2023-07-08T01:11:33;96914.22;;;23.40;61.28
52591;BME280;38483;42.620;25.394;2023-07-08T01:14:54;96943.94;;;23.60;61.75
52591;BME280;38483;42.620;25.394;2023-07-08T01:18:19;96946.00;;;23.48;61.51
52591;BME280;38483;42.620;25.394;2023-07-08T01:22:05;96943.81;;;23.61;61.77
52591;BME280;38483;42.620;25.394;2023-07-08T01:25:27;96938.06;;;23.48;61.13
52591;BME280;38483;42.620;25.394;2023-07-08T01:28:49;96943.59;;;23.55;61.14
52591;BME280;38483;42.620;25.394;2023-07-08T01:32:11;96937.06;;;23.67;61.31
52591;BME280;38483;42.620;25.394;2023-07-08T01:35:31;96921.81;;;23.61;61.56
52591;BME280;38483;42.620;25.394;2023-07-08T01:38:52;96941.06;;;23.71;61.18
52591;BME280;38483;42.620;25.394;2023-07-08T01:42:13;96936.47;;;23.73;61.77
52591;BME280;38483;42.620;25.394;2023-07-08T01:45:35;96929.38;;;23.56;61.97
52591;BME280;38483;42.620;25.394;2023-07-08T01:48:57;96929.13;;;23.41;63.48
52591;BME280;38483;42.620;25.394;2023-07-08T01:52:20;96938.19;;;23.29;64.15
52591;BME280;38483;42.620;25.394;2023-07-08T01:55:42;96936.38;;;23.29;64.03
52591;BME280;38483;42.620;25.394;2023-07-08T01:59:04;96934.72;;;23.11;64.06
52591;BME280;38483;42.620;25.394;2023-07-08T02:02:25;96930.03;;;23.05;65.21
52591;BME280;38483;42.620;25.394;2023-07-08T02:08:50;96924.59;;;23.06;64.91
52591;BME280;38483;42.620;25.394;2023-07-08T02:12:11;96923.00;;;22.96;64.81
52591;BME280;38483;42.620;25.394;2023-07-08T02:15:33;96925.06;;;23.02;64.91
52591;BME280;38483;42.620;25.394;2023-07-08T02:18:54;96926.63;;;23.12;65.14
52591;BME280;38483;42.620;25.394;2023-07-08T02:22:15;96926.88;;;23.19;65.47
52591;BME280;38483;42.620;25.394;2023-07-08T02:25:38;96935.75;;;23.00;67.35
52591;BME280;38483;42.620;25.394;2023-07-08T02:28:59;96937.59;;;23.00;67.24
52591;BME280;38483;42.620;25.394;2023-07-08T02:32:20;96954.59;;;22.88;68.13
52591;BME280;38483;42.620;25.394;2023-07-08T02:35:46;96958.50;;;22.56;65.68
52591;BME280;38483;42.620;25.394;2023-07-08T02:39:05;96951.13;;;22.50;67.87
52591;BME280;38483;42.620;25.394;2023-07-08T02:41:54;96966.59;;;22.45;67.26
52591;BME280;38483;42.620;25.394;2023-07-08T02:45:17;96972.91;;;22.25;65.97
52591;BME280;38483;42.620;25.394;2023-07-08T02:48:39;96973.22;;;22.03;67.61
52591;BME280;38483;42.620;25.394;2023-07-08T02:52:02;96984.91;;;21.91;69.95
52591;BME280;38483;42.620;25.394;2023-07-08T02:55:22;97006.44;;;21.67;71.53
52591;BME280;38483;42.620;25.394;2023-07-08T02:58:43;97003.78;;;21.58;72.78
52591;BME280;38483;42.620;25.394;2023-07-08T03:02:04;97017.34;;;21.44;72.77
52591;BME280;38483;42.620;25.394;2023-07-08T03:05:26;97006.81;;;21.44;72.07
52591;BME280;38483;42.620;25.394;2023-07-08T03:08:47;96999.22;;;21.41;70.08
52591;BME280;38483;42.620;25.394;2023-07-08T03:12:09;97004.63;;;21.58;69.82
52591;BME280;38483;42.620;25.394;2023-07-08T03:15:29;97011.56;;;21.59;70.45
52591;BME280;38483;42.620;25.394;2023-07-08T03:18:52;97001.56;;;21.44;71.79
52591;BME280;38483;42.620;25.394;2023-07-08T03:22:16;97017.34;;;21.44;71.08
52591;BME280;38483;42.620;25.394;2023-07-08T03:25:38;97029.59;;;21.45;70.10
52591;BME280;38483;42.620;25.394;2023-07-08T03:28:59;97029.84;;;21.42;70.50
52591;BME280;38483;42.620;25.394;2023-07-08T03:32:22;97056.50;;;21.48;70.16
52591;BME280;38483;42.620;25.394;2023-07-08T03:35:44;97035.50;;;21.28;71.24
52591;BME280;38483;42.620;25.394;2023-07-08T03:39:05;97026.09;;;21.35;71.16
52591;BME280;38483;42.620;25.394;2023-07-08T03:42:28;96990.19;;;21.34;70.68
52591;BME280;38483;42.620;25.394;2023-07-08T03:45:50;97020.84;;;21.54;69.59
52591;BME280;38483;42.620;25.394;2023-07-08T03:49:12;97032.66;;;21.69;70.44
52591;BME280;38483;42.620;25.394;2023-07-08T03:52:35;97028.38;;;21.87;69.11
52591;BME280;38483;42.620;25.394;2023-07-08T03:55:59;97026.97;;;21.83;68.69
52591;BME280;38483;42.620;25.394;2023-07-08T03:59:21;97022.78;;;21.42;67.03
52591;BME280;38483;42.620;25.394;2023-07-08T04:02:43;97012.06;;;21.15;67.86
52591;BME280;38483;42.620;25.394;2023-07-08T04:06:03;96998.19;;;21.13;67.61
52591;BME280;38483;42.620;25.394;2023-07-08T04:09:26;96997.88;;;21.06;67.52
52591;BME280;38483;42.620;25.394;2023-07-08T04:12:50;97005.97;;;21.34;68.58
52591;BME280;38483;42.620;25.394;2023-07-08T04:16:16;96997.41;;;21.51;67.88
52591;BME280;38483;42.620;25.394;2023-07-08T04:19:37;96995.47;;;21.72;68.30
52591;BME280;38483;42.620;25.394;2023-07-08T04:22:59;96993.78;;;21.80;68.02
52591;BME280;38483;42.620;25.394;2023-07-08T04:26:21;96998.78;;;22.12;67.40
52591;BME280;38483;42.620;25.394;2023-07-08T04:29:42;97008.06;;;22.16;67.37
52591;BME280;38483;42.620;25.394;2023-07-08T04:33:04;97017.63;;;22.27;66.95
52591;BME280;38483;42.620;25.394;2023-07-08T04:36:25;97011.28;;;22.10;67.97
52591;BME280;38483;42.620;25.394;2023-07-08T04:39:46;97012.66;;;21.95;68.47
52591;BME280;38483;42.620;25.394;2023-07-08T04:43:09;97004.84;;;22.22;66.63
52591;BME280;38483;42.620;25.394;2023-07-08T04:46:35;97007.72;;;22.38;66.77
52591;BME280;38483;42.620;25.394;2023-07-08T04:49:54;97017.78;;;22.16;68.69
52591;BME280;38483;42.620;25.394;2023-07-08T04:53:16;97009.06;;;22.15;69.07
52591;BME280;38483;42.620;25.394;2023-07-08T04:56:46;97022.47;;;22.31;69.41
52591;BME280;38483;42.620;25.394;2023-07-08T05:00:09;97003.31;;;22.20;69.32
52591;BME280;38483;42.620;25.394;2023-07-08T05:03:28;97014.69;;;22.30;69.79
52591;BME280;38483;42.620;25.394;2023-07-08T05:06:49;96999.81;;;22.38;70.12
52591;BME280;38483;42.620;25.394;2023-07-08T05:10:10;97010.94;;;22.42;69.18
52591;BME280;38483;42.620;25.394;2023-07-08T05:13:30;96999.34;;;22.52;69.13
52591;BME280;38483;42.620;25.394;2023-07-08T05:16:52;97010.00;;;22.70;68.28
52591;BME280;38483;42.620;25.394;2023-07-08T05:20:14;97004.41;;;22.83;68.08
52591;BME280;38483;42.620;25.394;2023-07-08T05:23:36;97001.66;;;22.75;67.92
52591;BME280;38483;42.620;25.394;2023-07-08T05:26:56;97011.16;;;22.95;67.13
52591;BME280;38483;42.620;25.394;2023-07-08T05:30:17;97010.38;;;22.85;67.22
52591;BME280;38483;42.620;25.394;2023-07-08T05:33:38;97006.03;;;22.93;67.68
52591;BME280;38483;42.620;25.394;2023-07-08T05:37:01;97006.22;;;23.09;67.07
52591;BME280;38483;42.620;25.394;2023-07-08T05:40:26;97013.63;;;23.51;66.11
52591;BME280;38483;42.620;25.394;2023-07-08T05:43:46;97011.50;;;23.72;64.57
52591;BME280;38483;42.620;25.394;2023-07-08T05:47:08;97034.84;;;24.11;63.87
52591;BME280;38483;42.620;25.394;2023-07-08T05:50:28;97028.88;;;24.09;62.30
52591;BME280;38483;42.620;25.394;2023-07-08T05:53:49;97035.06;;;24.00;62.98
52591;BME280;38483;42.620;25.394;2023-07-08T05:57:11;97032.19;;;23.76;62.73
52591;BME280;38483;42.620;25.394;2023-07-08T06:00:32;97030.09;;;23.44;64.16
52591;BME280;38483;42.620;25.394;2023-07-08T06:03:52;97033.59;;;23.35;64.55
52591;BME280;38483;42.620;25.394;2023-07-08T06:07:13;97035.53;;;23.43;64.07
52591;BME280;38483;42.620;25.394;2023-07-08T06:10:34;97016.03;;;23.17;64.63
52591;BME280;38483;42.620;25.394;2023-07-08T06:13:55;97037.81;;;23.28;64.11
52591;BME280;38483;42.620;25.394;2023-07-08T06:17:16;97042.84;;;23.49;64.09
52591;BME280;38483;42.620;25.394;2023-07-08T06:20:37;97027.88;;;23.93;61.92
52591;BME280;38483;42.620;25.394;2023-07-08T06:23:58;97031.13;;;23.34;64.34
52591;BME280;38483;42.620;25.394;2023-07-08T06:27:18;97027.38;;;23.54;63.60
52591;BME280;38483;42.620;25.394;2023-07-08T06:30:39;97040.81;;;23.78;62.77
52591;BME280;38483;42.620;25.394;2023-07-08T06:34:00;97044.22;;;23.88;61.52
52591;BME280;38483;42.620;25.394;2023-07-08T06:37:25;97044.31;;;24.14;60.70
52591;BME280;38483;42.620;25.394;2023-07-08T06:40:48;97030.16;;;24.05;60.69
52591;BME280;38483;42.620;25.394;2023-07-08T06:44:40;97054.03;;;24.57;59.66
52591;BME280;38483;42.620;25.394;2023-07-08T06:48:07;97010.16;;;24.29;60.07
52591;BME280;38483;42.620;25.394;2023-07-08T06:51:33;97053.69;;;24.08;61.65
52591;BME280;38483;42.620;25.394;2023-07-08T06:54:55;97062.97;;;24.56;60.54
52591;BME280;38483;42.620;25.394;2023-07-08T06:58:16;97068.28;;;24.81;59.24
52591;BME280;38483;42.620;25.394;2023-07-08T07:01:39;97077.34;;;24.28;60.03
52591;BME280;38483;42.620;25.394;2023-07-08T07:05:05;97079.53;;;24.14;60.36
52591;BME280;38483;42.620;25.394;2023-07-08T07:08:34;97081.34;;;23.96;60.99
52591;BME280;38483;42.620;25.394;2023-07-08T07:12:14;97074.06;;;24.77;59.03
52591;BME280;38483;42.620;25.394;2023-07-08T07:15:38;97077.31;;;24.96;57.46
52591;BME280;38483;42.620;25.394;2023-07-08T07:19:45;97081.88;;;25.12;56.47
52591;BME280;38483;42.620;25.394;2023-07-08T07:23:13;97086.03;;;25.23;56.85
52591;BME280;38483;42.620;25.394;2023-07-08T07:26:36;97105.00;;;25.77;55.81
52591;BME280;38483;42.620;25.394;2023-07-08T07:30:06;97085.53;;;25.45;55.69
52591;BME280;38483;42.620;25.394;2023-07-08T07:33:39;97094.09;;;25.05;56.83
52591;BME280;38483;42.620;25.394;2023-07-08T07:37:22;97111.38;;;24.66;57.56
52591;BME280;38483;42.620;25.394;2023-07-08T07:40:45;97105.38;;;24.38;58.93
52591;BME280;38483;42.620;25.394;2023-07-08T07:44:11;97112.50;;;24.63;58.07
52591;BME280;38483;42.620;25.394;2023-07-08T07:47:32;97117.06;;;24.71;58.91
52591;BME280;38483;42.620;25.394;2023-07-08T07:50:54;97097.81;;;24.43;58.80
52591;BME280;38483;42.620;25.394;2023-07-08T07:54:21;97112.66;;;24.18;60.58
52591;BME280;38483;42.620;25.394;2023-07-08T07:57:49;97105.22;;;23.87;61.53
52591;BME280;38483;42.620;25.394;2023-07-08T08:01:12;97102.84;;;24.11;60.03
52591;BME280;38483;42.620;25.394;2023-07-08T08:04:33;97118.00;;;24.44;59.24
52591;BME280;38483;42.620;25.394;2023-07-08T08:07:54;97112.13;;;24.33;60.04
52591;BME280;38483;42.620;25.394;2023-07-08T08:11:15;97104.22;;;24.58;59.10
52591;BME280;38483;42.620;25.394;2023-07-08T08:14:41;97100.78;;;24.66;58.60
52591;BME280;38483;42.620;25.394;2023-07-08T08:17:46;97076.44;;;24.62;57.16
52591;BME280;38483;42.620;25.394;2023-07-08T08:20:21;97118.00;;;24.87;57.21
52591;BME280;38483;42.620;25.394;2023-07-08T08:22:50;97122.59;;;24.60;57.50
52591;BME280;38483;42.620;25.394;2023-07-08T08:25:21;97131.25;;;24.27;57.79
52591;BME280;38483;42.620;25.394;2023-07-08T08:27:50;97105.22;;;24.40;58.24
52591;BME280;38483;42.620;25.394;2023-07-08T08:30:20;97115.31;;;24.62;57.17
52591;BME280;38483;42.620;25.394;2023-07-08T08:32:47;97105.66;;;24.53;57.96
52591;BME280;38483;42.620;25.394;2023-07-08T08:35:20;97096.00;;;24.44;57.81
52591;BME280;38483;42.620;25.394;2023-07-08T08:38:09;97130.16;;;24.98;57.64
52591;BME280;38483;42.620;25.394;2023-07-08T08:41:36;97116.44;;;25.36;56.91
52591;BME280;38483;42.620;25.394;2023-07-08T08:44:57;97122.22;;;25.65;55.73
52591;BME280;38483;42.620;25.394;2023-07-08T08:48:03;97114.25;;;25.57;56.14
52591;BME280;38483;42.620;25.394;2023-07-08T08:53:22;97125.75;;;25.40;55.55
52591;BME280;38483;42.620;25.394;2023-07-08T08:56:17;97116.38;;;25.62;56.08
52591;BME280;38483;42.620;25.394;2023-07-08T08:59:26;97120.03;;;26.19;54.80
52591;BME280;38483;42.620;25.394;2023-07-08T09:03:02;97125.91;;;25.80;55.69
52591;BME280;38483;42.620;25.394;2023-07-08T09:06:41;97119.38;;;26.41;53.58
52591;BME280;38483;42.620;25.394;2023-07-08T09:12:32;97127.59;;;25.98;53.06
52591;BME280;38483;42.620;25.394;2023-07-08T09:15:25;97141.97;;;25.71;54.32
52591;BME280;38483;42.620;25.394;2023-07-08T09:17:57;97106.66;;;25.87;54.39
52591;BME280;38483;42.620;25.394;2023-07-08T09:20:32;97121.03;;;26.26;53.60
52591;BME280;38483;42.620;25.394;2023-07-08T09:25:59;97123.03;;;25.66;54.68
52591;BME280;38483;42.620;25.394;2023-07-08T09:28:47;97119.88;;;25.62;54.19
52591;BME280;38483;42.620;25.394;2023-07-08T09:31:27;97103.97;;;25.62;53.04
52591;BME280;38483;42.620;25.394;2023-07-08T09:34:16;97124.38;;;25.70;53.66
52591;BME280;38483;42.620;25.394;2023-07-08T09:36:46;97104.47;;;25.66;53.33
52591;BME280;38483;42.620;25.394;2023-07-08T09:39:19;97122.50;;;25.54;54.09
52591;BME280;38483;42.620;25.394;2023-07-08T09:41:50;97093.41;;;25.03;54.80
52591;BME280;38483;42.620;25.394;2023-07-08T09:44:28;97093.19;;;25.22;55.27
52591;BME280;38483;42.620;25.394;2023-07-08T09:46:58;97107.41;;;25.21;56.07
52591;BME280;38483;42.620;25.394;2023-07-08T09:49:46;97087.31;;;24.34;58.80
52591;BME280;38483;42.620;25.394;2023-07-08T09:52:36;97115.66;;;23.88;64.06
52591;BME280;38483;42.620;25.394;2023-07-08T09:56:05;97109.16;;;23.56;66.52
52591;BME280;38483;42.620;25.394;2023-07-08T09:59:28;97122.47;;;23.46;66.35
52591;BME280;38483;42.620;25.394;2023-07-08T10:06:25;97125.69;;;22.94;69.19
52591;BME280;38483;42.620;25.394;2023-07-08T10:09:33;97119.44;;;22.95;70.09
52591;BME280;38483;42.620;25.394;2023-07-08T10:12:58;97110.16;;;22.91;70.66
52591;BME280;38483;42.620;25.394;2023-07-08T10:16:27;97111.06;;;23.09;69.96
52591;BME280;38483;42.620;25.394;2023-07-08T10:19:47;97094.41;;;22.99;70.34
52591;BME280;38483;42.620;25.394;2023-07-08T10:25:58;97092.34;;;22.93;72.28
52591;BME280;38483;42.620;25.394;2023-07-08T10:41:11;97077.75;;;23.70;68.63
52591;BME280;38483;42.620;25.394;2023-07-08T10:44:37;97080.94;;;23.56;68.34
52591;BME280;38483;42.620;25.394;2023-07-08T10:48:16;97093.09;;;23.49;67.59
52591;BME280;38483;42.620;25.394;2023-07-08T10:51:18;97085.28;;;23.48;69.14
52591;BME280;38483;42.620;25.394;2023-07-08T10:57:08;97113.22;;;23.32;70.19
52591;BME280;38483;42.620;25.394;2023-07-08T11:07:10;97166.53;;;22.62;75.76
52591;BME280;38483;42.620;25.394;2023-07-08T11:10:26;97168.03;;;22.17;79.21
52591;BME280;38483;42.620;25.394;2023-07-08T11:13:51;97158.63;;;21.75;82.21
52591;BME280;38483;42.620;25.394;2023-07-08T11:17:29;97151.97;;;21.71;74.34
52591;BME280;38483;42.620;25.394;2023-07-08T11:20:45;97153.84;;;21.99;81.98
52591;BME280;38483;42.620;25.394;2023-07-08T11:27:16;97150.69;;;22.15;79.40
52591;BME280;38483;42.620;25.394;2023-07-08T11:30:36;97120.25;;;22.20;78.50
52591;BME280;38483;42.620;25.394;2023-07-08T11:33:57;97144.13;;;22.47;78.25
52591;BME280;38483;42.620;25.394;2023-07-08T11:37:18;97148.59;;;22.37;79.89
52591;BME280;38483;42.620;25.394;2023-07-08T11:40:59;97143.72;;;22.33;78.92
52591;BME280;38483;42.620;25.394;2023-07-08T11:44:23;97141.63;;;22.36;77.67
52591;BME280;38483;42.620;25.394;2023-07-08T11:47:53;97154.16;;;22.44;76.28
52591;BME280;38483;42.620;25.394;2023-07-08T11:51:18;97135.09;;;22.40;77.54
52591;BME280;38483;42.620;25.394;2023-07-08T11:54:43;97154.28;;;22.52;77.25
52591;BME280;38483;42.620;25.394;2023-07-08T11:58:13;97149.25;;;22.49;77.43
52591;BME280;38483;42.620;25.394;2023-07-08T12:07:17;97155.28;;;22.60;75.75
52591;BME280;38483;42.620;25.394;2023-07-08T12:10:39;97150.22;;;22.57;74.69
52591;BME280;38483;42.620;25.394;2023-07-08T12:13:59;97139.38;;;22.51;74.25
52591;BME280;38483;42.620;25.394;2023-07-08T12:17:19;97140.22;;;22.51;74.60
52591;BME280;38483;42.620;25.394;2023-07-08T12:20:52;97137.44;;;22.53;75.33
52591;BME280;38483;42.620;25.394;2023-07-08T12:24:12;97133.97;;;22.52;74.17
52591;BME280;38483;42.620;25.394;2023-07-08T12:27:33;97151.09;;;22.58;74.81
52591;BME280;38483;42.620;25.394;2023-07-08T12:30:53;97149.84;;;22.62;75.39
52591;BME280;38483;42.620;25.394;2023-07-08T12:34:15;97151.75;;;22.79;74.94
52591;BME280;38483;42.620;25.394;2023-07-08T12:37:35;97145.06;;;22.85;74.13
52591;BME280;38483;42.620;25.394;2023-07-08T12:41:00;97149.19;;;22.97;73.29
52591;BME280;38483;42.620;25.394;2023-07-08T12:44:21;97144.44;;;23.10;72.71
52591;BME280;38483;42.620;25.394;2023-07-08T12:47:45;97142.66;;;23.01;73.20
52591;BME280;38483;42.620;25.394;2023-07-08T12:51:06;97138.75;;;23.05;73.57
52591;BME280;38483;42.620;25.394;2023-07-08T12:54:28;97157.75;;;23.18;72.59
52591;BME280;38483;42.620;25.394;2023-07-08T12:57:50;97151.25;;;23.49;72.52
52591;BME280;38483;42.620;25.394;2023-07-08T13:01:16;97153.50;;;23.71;70.05
52591;BME280;38483;42.620;25.394;2023-07-08T13:04:36;97140.44;;;23.87;68.92
52591;BME280;38483;42.620;25.394;2023-07-08T13:08:00;97149.81;;;24.09;69.32
52591;BME280;38483;42.620;25.394;2023-07-08T13:11:22;97148.09;;;24.25;66.87
52591;BME280;38483;42.620;25.394;2023-07-08T13:14:43;97153.88;;;24.39;65.26
52591;BME280;38483;42.620;25.394;2023-07-08T13:18:03;97140.63;;;24.39;65.50
52591;BME280;38483;42.620;25.394;2023-07-08T13:21:24;97163.69;;;24.46;62.18
52591;BME280;38483;42.620;25.394;2023-07-08T13:24:45;97153.50;;;24.34;63.25
52591;BME280;38483;42.620;25.394;2023-07-08T13:28:20;97141.38;;;24.49;62.58
52591;BME280;38483;42.620;25.394;2023-07-08T13:31:48;97162.66;;;24.39;62.42
52591;BME280;38483;42.620;25.394;2023-07-08T13:35:25;97155.31;;;24.94;62.53
52591;BME280;38483;42.620;25.394;2023-07-08T13:38:44;97157.91;;;24.86;59.34
52591;BME280;38483;42.620;25.394;2023-07-08T13:42:06;97144.91;;;24.57;60.16
52591;BME280;38483;42.620;25.394;2023-07-08T13:45:29;97142.91;;;24.94;59.35
52591;BME280;38483;42.620;25.394;2023-07-08T13:48:55;97133.09;;;24.87;58.91
52591;BME280;38483;42.620;25.394;2023-07-08T13:55:17;97152.44;;;24.87;59.88
52591;BME280;38483;42.620;25.394;2023-07-08T13:58:43;97141.91;;;24.95;60.25
52591;BME280;38483;42.620;25.394;2023-07-08T14:02:01;97141.97;;;24.43;59.83
52591;BME280;38483;42.620;25.394;2023-07-08T14:05:22;97121.56;;;24.17;61.07
52591;BME280;38483;42.620;25.394;2023-07-08T14:08:43;97127.16;;;24.32;62.02
52591;BME280;38483;42.620;25.394;2023-07-08T14:12:05;97114.47;;;24.36;62.58
52591;BME280;38483;42.620;25.394;2023-07-08T14:15:26;97128.72;;;24.60;62.76
52591;BME280;38483;42.620;25.394;2023-07-08T14:18:27;97119.56;;;24.55;62.40
52591;BME280;38483;42.620;25.394;2023-07-08T14:20:55;97124.91;;;24.37;61.77
52591;BME280;38483;42.620;25.394;2023-07-08T14:23:43;97123.53;;;24.15;61.64
52591;BME280;38483;42.620;25.394;2023-07-08T14:27:04;97125.97;;;24.27;62.05
52591;BME280;38483;42.620;25.394;2023-07-08T14:30:25;97132.75;;;24.11;62.48
52591;BME280;38483;42.620;25.394;2023-07-08T14:33:46;97080.31;;;23.62;63.21
52591;BME280;38483;42.620;25.394;2023-07-08T14:37:16;97117.50;;;23.78;63.51
52591;BME280;38483;42.620;25.394;2023-07-08T14:40:27;97113.53;;;23.92;63.79
52591;BME280;38483;42.620;25.394;2023-07-08T14:43:48;97124.53;;;24.14;62.78
52591;BME280;38483;42.620;25.394;2023-07-08T14:47:12;97112.94;;;24.15;61.86
52591;BME280;38483;42.620;25.394;2023-07-08T14:50:32;97110.94;;;24.53;61.75
52591;BME280;38483;42.620;25.394;2023-07-08T14:53:53;97104.88;;;24.78;60.18
52591;BME280;38483;42.620;25.394;2023-07-08T14:57:15;97104.41;;;24.82;61.25
52591;BME280;38483;42.620;25.394;2023-07-08T15:00:38;97095.81;;;24.88;59.22
52591;BME280;38483;42.620;25.394;2023-07-08T15:03:58;97107.81;;;25.00;59.30
52591;BME280;38483;42.620;25.394;2023-07-08T15:07:35;97105.56;;;24.62;59.77
52591;BME280;38483;42.620;25.394;2023-07-08T15:10:57;97110.25;;;24.68;57.75
52591;BME280;38483;42.620;25.394;2023-07-08T15:14:21;97121.28;;;24.64;58.25
52591;BME280;38483;42.620;25.394;2023-07-08T15:17:43;97113.88;;;24.67;58.51
52591;BME280;38483;42.620;25.394;2023-07-08T15:21:12;97119.78;;;24.61;58.83
52591;BME280;38483;42.620;25.394;2023-07-08T15:24:32;97122.44;;;24.61;59.23
52591;BME280;38483;42.620;25.394;2023-07-08T15:27:53;97120.78;;;24.60;59.07
52591;BME280;38483;42.620;25.394;2023-07-08T15:30:54;97123.63;;;24.67;58.00
52591;BME280;38483;42.620;25.394;2023-07-08T15:33:21;97127.38;;;24.56;57.74
52591;BME280;38483;42.620;25.394;2023-07-08T15:35:49;97119.22;;;24.50;57.90
52591;BME280;38483;42.620;25.394;2023-07-08T15:38:37;97138.47;;;24.60;58.38
52591;BME280;38483;42.620;25.394;2023-07-08T15:41:58;97148.41;;;24.58;58.28
52591;BME280;38483;42.620;25.394;2023-07-08T15:45:12;97147.03;;;24.54;58.34
52591;BME280;38483;42.620;25.394;2023-07-08T15:47:45;97149.69;;;24.54;58.83
52591;BME280;38483;42.620;25.394;2023-07-08T15:50:32;97157.03;;;24.60;58.90
52591;BME280;38483;42.620;25.394;2023-07-08T15:53:53;97157.69;;;24.62;58.61
52591;BME280;38483;42.620;25.394;2023-07-08T15:57:14;97153.38;;;24.61;58.27
52591;BME280;38483;42.620;25.394;2023-07-08T16:00:36;97152.88;;;24.75;57.95
52591;BME280;38483;42.620;25.394;2023-07-08T16:03:56;97156.38;;;24.83;57.95
52591;BME280;38483;42.620;25.394;2023-07-08T16:07:17;97119.69;;;24.71;57.02
52591;BME280;38483;42.620;25.394;2023-07-08T16:10:37;97148.53;;;24.91;57.94
52591;BME280;38483;42.620;25.394;2023-07-08T16:14:00;97150.91;;;24.77;58.31
52591;BME280;38483;42.620;25.394;2023-07-08T16:17:21;97149.13;;;24.68;58.07
52591;BME280;38483;42.620;25.394;2023-07-08T16:20:42;97148.69;;;24.72;58.62
52591;BME280;38483;42.620;25.394;2023-07-08T16:24:04;97137.13;;;24.38;59.48
52591;BME280;38483;42.620;25.394;2023-07-08T16:27:25;97135.16;;;24.58;58.92
52591;BME280;38483;42.620;25.394;2023-07-08T16:30:46;97138.38;;;24.44;59.39
52591;BME280;38483;42.620;25.394;2023-07-08T16:34:08;97125.13;;;24.44;59.02
52591;BME280;38483;42.620;25.394;2023-07-08T16:37:28;97127.78;;;24.44;59.51
52591;BME280;38483;42.620;25.394;2023-07-08T16:40:48;97144.72;;;24.33;59.30
52591;BME280;38483;42.620;25.394;2023-07-08T16:44:13;97128.22;;;24.21;59.20
52591;BME280;38483;42.620;25.394;2023-07-08T16:47:30;97133.50;;;24.21;59.83
52591;BME280;38483;42.620;25.394;2023-07-08T16:50:50;97124.38;;;24.34;59.30
52591;BME280;38483;42.620;25.394;2023-07-08T16:54:12;97122.31;;;24.45;59.31
52591;BME280;38483;42.620;25.394;2023-07-08T16:57:35;97126.53;;;24.56;58.54
52591;BME280;38483;42.620;25.394;2023-07-08T17:00:56;97121.84;;;24.50;58.28
52591;BME280;38483;42.620;25.394;2023-07-08T17:04:17;97124.84;;;24.55;57.85
52591;BME280;38483;42.620;25.394;2023-07-08T17:07:40;97111.94;;;24.52;57.77
52591;BME280;38483;42.620;25.394;2023-07-08T17:11:01;97117.66;;;24.65;57.49
52591;BME280;38483;42.620;25.394;2023-07-08T17:14:23;97122.47;;;24.69;57.55
52591;BME280;38483;42.620;25.394;2023-07-08T17:17:51;97125.03;;;24.53;57.87
52591;BME280;38483;42.620;25.394;2023-07-08T17:21:12;97097.28;;;24.40;59.01
52591;BME280;38483;42.620;25.394;2023-07-08T17:24:30;97123.00;;;24.47;58.98
52591;BME280;38483;42.620;25.394;2023-07-08T17:27:52;97121.47;;;24.45;59.25
52591;BME280;38483;42.620;25.394;2023-07-08T17:31:14;97116.19;;;24.45;59.13
52591;BME280;38483;42.620;25.394;2023-07-08T17:34:33;97118.53;;;24.48;59.03
52591;BME280;38483;42.620;25.394;2023-07-08T17:37:56;97124.34;;;24.51;59.22
52591;BME280;38483;42.620;25.394;2023-07-08T17:41:18;97120.00;;;24.24;59.34
52591;BME280;38483;42.620;25.394;2023-07-08T17:44:41;97130.34;;;24.00;60.84
52591;BME280;38483;42.620;25.394;2023-07-08T17:48:01;97131.47;;;23.98;60.75
52591;BME280;38483;42.620;25.394;2023-07-08T17:51:23;97102.63;;;23.77;60.23
52591;BME280;38483;42.620;25.394;2023-07-08T17:54:44;97150.56;;;24.19;59.75
52591;BME280;38483;42.620;25.394;2023-07-08T17:58:07;97143.25;;;23.86;60.94
52591;BME280;38483;42.620;25.394;2023-07-08T18:01:27;97151.38;;;23.75;61.41
52591;BME280;38483;42.620;25.394;2023-07-08T18:04:48;97161.28;;;23.73;61.49